Jaguare, Brazil
Current Conditions -  °F | °C
As of 9:00 PM on Wednesday 26 Nov 2014 (Local Time) from SBVT Reporting Station
Few Clouds Few Clouds  
Wind Chill: 77°   Ceiling: Unl
Heat Index: 79°   Visibility: 6mi
Dew Point: 68°   Wind: 18mph
Humidity: 74%   Direction: 20°NNE
Pressure: 29.85"   Gusts: NA
Location:  18.91°S, 40.08°W
Report Text: SBVT 262300Z 02016KT 9999 FEW040 25/20 Q1011
Loading
Personal Weather Stations






























Interactive Weather Map New forecast layout! Learn more

10-Day Weather Forecast

Advertisements
Track Severe Weather on mobile